Time;durP1;ratioP1;P1;durP2;ratioP2;P2;SDS_P1;SDS_P2;PMS_P1;PMS_P2;Temp;Humidity;BMP_temperature;BMP_pressure;BME280_temperature;BME280_humidity;BME280_pressure;Samples;Min_cycle;Max_cycle;Signal;HPM_P1;HPM_P2
2022/10/14 00:01:03;;;;;;;;;;;15.10;91.60;;;;;;5043079;28;20111;-71
2022/10/14 00:03:30;;;;;;;;;;;15.10;91.60;;;;;;5039769;28;19987;-71
2022/10/14 00:05:56;;;;;;;;;;;15.10;91.60;;;;;;5039826;28;20098;-72
2022/10/14 00:08:23;;;;;;;;;;;15.10;91.60;;;;;;5043614;28;19984;-72
2022/10/14 00:10:50;;;;;;;;;;;15.00;91.60;;;;;;5038196;28;20461;-72
2022/10/14 00:13:17;;;;;;;;;;;15.10;91.70;;;;;;5040593;28;20002;-72
2022/10/14 00:15:44;;;;;;;;;;;15.10;91.70;;;;;;5039556;28;20049;-71
2022/10/14 00:18:11;;;;;;;;;;;15.00;91.70;;;;;;5041738;28;19979;-71
2022/10/14 00:20:37;;;;;;;;;;;15.10;91.70;;;;;;5042075;28;20160;-72
2022/10/14 00:23:04;;;;;;;;;;;15.00;91.70;;;;;;5040634;28;19987;-72
2022/10/14 00:25:31;;;;;;;;;;;15.00;91.70;;;;;;5037455;28;20558;-71
2022/10/14 00:28:02;;;;;;;;;;;15.00;91.70;;;;;;5041056;28;20459;-71
2022/10/14 00:30:29;;;;;;;;;;;15.10;91.70;;;;;;5042179;28;20650;-71
2022/10/14 00:32:56;;;;;;;;;;;15.10;91.80;;;;;;5040060;28;19979;-72
2022/10/14 00:35:23;;;;;;;;;;;15.00;91.80;;;;;;5044750;28;19990;-71
2022/10/14 00:37:50;;;;;;;;;;;15.00;91.80;;;;;;5045830;28;20011;-72
2022/10/14 00:40:16;;;;;;;;;;;15.00;91.80;;;;;;5033442;28;19996;-72
2022/10/14 00:42:43;;;;;;;;;;;15.00;91.80;;;;;;5041115;28;20444;-71
2022/10/14 00:45:13;;;;;;;;;;;15.00;91.80;;;;;;5044369;28;20395;-71
2022/10/14 00:47:40;;;;;;;;;;;15.00;91.80;;;;;;5032542;28;20011;-70
2022/10/14 00:50:08;;;;;;;;;;;15.00;91.90;;;;;;5041927;28;20003;-71
2022/10/14 00:52:35;;;;;;;;;;;15.00;91.90;;;;;;5036770;28;19982;-71
2022/10/14 00:55:03;;;;;;;;;;;15.00;91.90;;;;;;5037841;28;19979;-71
2022/10/14 00:57:31;;;;;;;;;;;15.00;91.90;;;;;;5036373;28;20385;-71
2022/10/14 01:00:01;;;;;;;;;;;15.00;91.90;;;;;;5042653;28;20502;-71
2022/10/14 01:02:27;;;;;;;;;;;15.00;91.90;;;;;;5035257;28;19996;-71
2022/10/14 01:04:54;;;;;;;;;;;15.00;91.90;;;;;;5044120;28;20463;-72
2022/10/14 01:07:27;;;;;;;;;;;14.90;91.90;;;;;;5038932;28;19980;-71
2022/10/14 01:09:58;;;;;;;;;;;15.00;92.00;;;;;;5032047;28;19996;-71
2022/10/14 01:12:26;;;;;;;;;;;15.00;92.00;;;;;;5038378;28;19986;-71
2022/10/14 01:14:58;;;;;;;;;;;15.00;92.00;;;;;;5045033;28;19987;-72
2022/10/14 01:17:30;;;;;;;;;;;15.00;92.00;;;;;;5039336;28;19998;-71
2022/10/14 01:20:06;;;;;;;;;;;15.00;92.00;;;;;;5044023;28;19992;-71
2022/10/14 01:22:36;;;;;;;;;;;15.00;92.00;;;;;;5040888;28;19986;-71
2022/10/14 01:25:09;;;;;;;;;;;15.00;92.10;;;;;;5039826;28;20129;-71
2022/10/14 01:27:46;;;;;;;;;;;15.00;92.10;;;;;;5034541;28;20328;-71
2022/10/14 01:30:16;;;;;;;;;;;14.90;92.10;;;;;;5039754;28;20018;-71
2022/10/14 01:33:00;;;;;;;;;;;15.00;92.20;;;;;;5037844;28;20003;-71
2022/10/14 01:35:30;;;;;;;;;;;14.90;92.20;;;;;;5040187;28;20875;-71
2022/10/14 01:37:58;;;;;;;;;;;15.00;92.30;;;;;;5033620;28;20467;-71
2022/10/14 01:40:27;;;;;;;;;;;14.90;92.20;;;;;;5038577;28;20018;-72
2022/10/14 01:42:54;;;;;;;;;;;14.90;92.20;;;;;;5043796;28;19976;-71
2022/10/14 01:45:23;;;;;;;;;;;14.90;92.30;;;;;;5033627;28;20332;-72
2022/10/14 01:47:50;;;;;;;;;;;14.90;92.30;;;;;;5033201;28;19980;-71
2022/10/14 01:50:18;;;;;;;;;;;14.90;92.30;;;;;;5042778;28;20379;-71
2022/10/14 01:52:47;;;;;;;;;;;14.90;92.30;;;;;;5037421;28;19976;-70
2022/10/14 01:55:15;;;;;;;;;;;14.90;92.30;;;;;;5035458;28;19990;-71
2022/10/14 01:57:43;;;;;;;;;;;14.90;92.30;;;;;;5038581;28;19976;-71
2022/10/14 02:00:11;;;;;;;;;;;14.90;92.30;;;;;;5042681;28;20002;-70
2022/10/14 02:02:39;;;;;;;;;;;14.90;92.30;;;;;;5034387;28;20007;-71
2022/10/14 02:05:07;;;;;;;;;;;14.90;92.40;;;;;;5037376;28;19980;-72
2022/10/14 02:07:38;;;;;;;;;;;14.90;92.40;;;;;;5041365;28;19983;-71
2022/10/14 02:10:07;;;;;;;;;;;14.90;92.40;;;;;;5035885;28;20002;-72
2022/10/14 02:12:37;;;;;;;;;;;14.90;92.70;;;;;;5039008;28;19991;-71
2022/10/14 02:15:10;;;;;;;;;;;14.90;92.40;;;;;;5035106;28;19984;-71
2022/10/14 02:17:41;;;;;;;;;;;14.90;92.40;;;;;;5038601;28;19995;-72
2022/10/14 02:20:16;;;;;;;;;;;14.90;92.40;;;;;;5047649;28;20003;-71
2022/10/14 02:22:44;;;;;;;;;;;14.90;92.40;;;;;;5044271;28;20047;-71
2022/10/14 02:25:14;;;;;;;;;;;14.80;92.40;;;;;;5041318;28;19983;-71
2022/10/14 02:27:42;;;;;;;;;;;14.90;92.40;;;;;;5038711;28;20352;-72
2022/10/14 02:30:09;;;;;;;;;;;14.90;92.40;;;;;;5041429;28;20007;-70
2022/10/14 02:32:36;;;;;;;;;;;14.90;92.40;;;;;;5037895;28;19995;-71
2022/10/14 02:35:04;;;;;;;;;;;14.90;92.40;;;;;;5045346;28;19983;-72
2022/10/14 02:37:32;;;;;;;;;;;14.80;92.40;;;;;;5036416;28;19976;-71
2022/10/14 02:40:02;;;;;;;;;;;14.90;92.40;;;;;;5036846;28;20011;-70
2022/10/14 02:42:28;;;;;;;;;;;14.90;92.40;;;;;;5034692;28;19986;-70
2022/10/14 02:44:55;;;;;;;;;;;14.80;92.40;;;;;;5037626;28;19991;-72
2022/10/14 02:47:22;;;;;;;;;;;14.80;92.40;;;;;;5032002;28;20649;-72
2022/10/14 02:49:49;;;;;;;;;;;14.80;92.40;;;;;;5047358;28;19992;-71
2022/10/14 02:52:15;;;;;;;;;;;14.80;92.40;;;;;;5034049;28;19996;-71
2022/10/14 02:54:44;;;;;;;;;;;14.80;92.40;;;;;;5039925;28;19976;-71
2022/10/14 02:57:10;;;;;;;;;;;14.80;92.40;;;;;;5043270;28;19983;-71
2022/10/14 02:59:38;;;;;;;;;;;14.80;92.40;;;;;;5042964;28;19992;-72
2022/10/14 03:02:05;;;;;;;;;;;14.80;92.50;;;;;;5037758;28;20098;-72
2022/10/14 03:04:32;;;;;;;;;;;14.80;92.50;;;;;;5042766;28;19977;-71
2022/10/14 03:06:58;;;;;;;;;;;14.80;92.50;;;;;;5040417;28;19980;-71
2022/10/14 03:09:25;;;;;;;;;;;14.80;92.50;;;;;;5044539;28;20007;-71
2022/10/14 03:11:53;;;;;;;;;;;14.70;92.80;;;;;;5035527;28;19992;-72
2022/10/14 03:14:20;;;;;;;;;;;14.70;92.50;;;;;;5045259;28;19987;-71
2022/10/14 03:16:46;;;;;;;;;;;14.70;92.50;;;;;;5036695;28;20520;-71
2022/10/14 03:19:13;;;;;;;;;;;14.70;92.50;;;;;;5046020;28;20359;-72
2022/10/14 03:21:39;;;;;;;;;;;14.70;92.50;;;;;;5041762;28;19979;-71
2022/10/14 03:24:07;;;;;;;;;;;14.70;92.50;;;;;;5046442;28;19980;-72
2022/10/14 03:26:33;;;;;;;;;;;14.70;92.50;;;;;;5045971;28;19976;-71
2022/10/14 03:29:01;;;;;;;;;;;14.70;92.60;;;;;;5038982;28;20002;-70
2022/10/14 03:31:28;;;;;;;;;;;14.70;92.60;;;;;;5041570;28;20202;-70
2022/10/14 03:33:54;;;;;;;;;;;14.70;92.60;;;;;;5042396;28;19975;-72
2022/10/14 03:36:21;;;;;;;;;;;14.70;92.60;;;;;;5035262;28;19980;-72
2022/10/14 03:38:47;;;;;;;;;;;14.70;92.60;;;;;;5046994;28;19976;-73
2022/10/14 03:41:14;;;;;;;;;;;14.70;92.60;;;;;;5038059;28;19987;-71
2022/10/14 03:43:40;;;;;;;;;;;14.70;92.60;;;;;;5041946;28;19980;-72
2022/10/14 03:46:08;;;;;;;;;;;14.70;92.60;;;;;;5042630;28;19999;-71
2022/10/14 03:48:35;;;;;;;;;;;14.70;92.60;;;;;;5039145;28;19980;-71
2022/10/14 03:51:02;;;;;;;;;;;14.70;92.60;;;;;;5045923;28;19999;-71
2022/10/14 03:53:28;;;;;;;;;;;14.60;92.60;;;;;;5035459;28;19980;-71
2022/10/14 03:55:55;;;;;;;;;;;14.60;92.60;;;;;;5039346;28;19976;-71
2022/10/14 03:58:21;;;;;;;;;;;14.60;92.60;;;;;;5044988;28;19980;-71
2022/10/14 04:00:48;;;;;;;;;;;14.60;92.60;;;;;;5045571;28;20482;-71
2022/10/14 04:03:16;;;;;;;;;;;14.60;92.60;;;;;;5039742;28;19984;-71
2022/10/14 04:05:42;;;;;;;;;;;14.60;92.60;;;;;;5044077;28;20367;-71
2022/10/14 04:08:09;;;;;;;;;;;14.60;92.60;;;;;;5042948;28;19983;-71
2022/10/14 04:10:35;;;;;;;;;;;14.60;92.70;;;;;;5037556;28;19991;-72
2022/10/14 04:13:02;;;;;;;;;;;14.60;92.60;;;;;;5043361;28;20007;-72
2022/10/14 04:15:28;;;;;;;;;;;14.50;92.60;;;;;;5034752;28;19991;-71
2022/10/14 04:17:55;;;;;;;;;;;14.50;92.60;;;;;;5045453;28;19980;-71
2022/10/14 04:20:23;;;;;;;;;;;14.50;92.60;;;;;;5043906;28;20014;-71
2022/10/14 04:22:50;;;;;;;;;;;14.50;92.60;;;;;;5037249;28;19983;-71
2022/10/14 04:25:17;;;;;;;;;;;14.50;92.60;;;;;;5037145;28;19986;-71
2022/10/14 04:27:43;;;;;;;;;;;14.50;92.70;;;;;;5039703;28;19976;-71
2022/10/14 04:30:10;;;;;;;;;;;14.50;92.60;;;;;;5041882;28;19992;-71
2022/10/14 04:32:37;;;;;;;;;;;14.50;92.70;;;;;;5039567;28;19995;-72
2022/10/14 04:35:04;;;;;;;;;;;14.50;92.70;;;;;;5040590;28;19975;-71
2022/10/14 04:37:32;;;;;;;;;;;14.50;92.70;;;;;;5042809;28;20015;-71
2022/10/14 04:39:58;;;;;;;;;;;14.50;92.70;;;;;;5042617;28;19995;-71
2022/10/14 04:42:25;;;;;;;;;;;14.50;92.70;;;;;;5039946;28;20842;-72
2022/10/14 04:44:51;;;;;;;;;;;14.50;92.70;;;;;;5041390;28;20733;-71
2022/10/14 04:47:18;;;;;;;;;;;14.50;92.70;;;;;;5042038;28;19994;-71
2022/10/14 04:49:44;;;;;;;;;;;14.50;92.70;;;;;;5043399;28;19988;-71
2022/10/14 04:52:11;;;;;;;;;;;14.50;92.70;;;;;;5041239;28;19999;-71
2022/10/14 04:54:39;;;;;;;;;;;14.50;92.70;;;;;;5038717;28;19972;-70
2022/10/14 04:57:06;;;;;;;;;;;14.40;92.70;;;;;;5043178;28;20422;-72
2022/10/14 04:59:33;;;;;;;;;;;14.40;92.70;;;;;;5043944;28;20000;-71
2022/10/14 05:01:59;;;;;;;;;;;14.40;92.70;;;;;;5041858;28;19992;-72
2022/10/14 05:04:26;;;;;;;;;;;14.40;92.70;;;;;;5042052;28;19994;-72
2022/10/14 05:06:52;;;;;;;;;;;14.40;92.80;;;;;;5041680;28;20707;-71
2022/10/14 05:09:19;;;;;;;;;;;14.40;92.80;;;;;;5035204;28;19996;-71
2022/10/14 05:11:47;;;;;;;;;;;14.40;92.80;;;;;;5037255;28;20014;-71
2022/10/14 05:14:13;;;;;;;;;;;14.40;92.80;;;;;;5043983;28;19980;-71
2022/10/14 05:16:40;;;;;;;;;;;14.40;92.80;;;;;;5036763;28;20055;-71
2022/10/14 05:19:06;;;;;;;;;;;14.30;92.80;;;;;;5041696;28;19996;-71
2022/10/14 05:21:33;;;;;;;;;;;14.40;92.80;;;;;;5038215;28;19976;-71
2022/10/14 05:23:59;;;;;;;;;;;14.40;92.80;;;;;;5043394;28;19976;-70
2022/10/14 05:26:26;;;;;;;;;;;14.30;92.80;;;;;;5043119;28;19986;-71
2022/10/14 05:28:54;;;;;;;;;;;14.30;92.80;;;;;;5040276;28;19979;-70
2022/10/14 05:31:20;;;;;;;;;;;14.30;92.80;;;;;;5041291;28;20479;-70
2022/10/14 05:33:47;;;;;;;;;;;14.20;93.10;;;;;;5038983;28;19992;-68
2022/10/14 05:36:13;;;;;;;;;;;14.20;93.30;;;;;;5036384;28;19991;-70
2022/10/14 05:38:40;;;;;;;;;;;14.10;93.40;;;;;;5041270;28;19980;-71
2022/10/14 05:41:07;;;;;;;;;;;14.10;93.40;;;;;;5029388;28;19987;-70
2022/10/14 05:43:33;;;;;;;;;;;14.10;93.40;;;;;;5035325;28;19984;-70
2022/10/14 05:46:01;;;;;;;;;;;14.10;93.40;;;;;;5032229;28;19992;-70
2022/10/14 05:48:28;;;;;;;;;;;14.10;93.40;;;;;;5036088;28;19986;-70
2022/10/14 05:50:54;;;;;;;;;;;14.10;93.30;;;;;;5038360;28;19992;-70
2022/10/14 05:53:21;;;;;;;;;;;14.20;93.30;;;;;;5038129;28;20031;-70
2022/10/14 05:55:48;;;;;;;;;;;14.10;93.30;;;;;;5043429;28;20083;-71
2022/10/14 05:58:14;;;;;;;;;;;14.10;93.20;;;;;;5045864;28;19972;-70
2022/10/14 06:00:41;;;;;;;;;;;14.10;93.30;;;;;;5047037;28;19995;-70
2022/10/14 06:03:10;;;;;;;;;;;14.10;93.20;;;;;;5039750;28;19980;-71
2022/10/14 06:05:37;;;;;;;;;;;14.10;93.20;;;;;;5044872;28;20648;-70
2022/10/14 06:08:03;;;;;;;;;;;14.10;93.20;;;;;;5046441;28;20439;-70
2022/10/14 06:10:30;;;;;;;;;;;14.10;93.20;;;;;;5046353;28;19996;-70
2022/10/14 06:12:57;;;;;;;;;;;14.10;93.20;;;;;;5048257;28;19991;-70
2022/10/14 06:15:23;;;;;;;;;;;14.10;93.20;;;;;;5044344;28;19975;-68
2022/10/14 06:17:50;;;;;;;;;;;14.20;93.20;;;;;;5044000;28;19988;-70
2022/10/14 06:20:18;;;;;;;;;;;14.10;93.20;;;;;;5048102;28;20535;-70
2022/10/14 06:22:44;;;;;;;;;;;14.10;93.20;;;;;;5040226;28;19980;-70
2022/10/14 06:25:11;;;;;;;;;;;14.10;93.20;;;;;;5045946;28;19983;-70
2022/10/14 06:27:37;;;;;;;;;;;14.10;93.20;;;;;;5043277;28;20356;-69
2022/10/14 06:30:04;;;;;;;;;;;14.10;93.20;;;;;;5045053;28;19998;-70
2022/10/14 06:32:31;;;;;;;;;;;14.10;93.20;;;;;;5039607;28;19995;-70
2022/10/14 06:34:58;;;;;;;;;;;14.10;93.20;;;;;;5047324;28;19983;-70
2022/10/14 06:37:25;;;;;;;;;;;14.10;93.20;;;;;;5043911;28;20836;-70
2022/10/14 06:39:52;;;;;;;;;;;14.10;93.20;;;;;;5049298;28;20015;-70
2022/10/14 06:42:19;;;;;;;;;;;14.10;93.20;;;;;;5042107;28;19976;-70
2022/10/14 06:44:45;;;;;;;;;;;14.10;93.20;;;;;;5043492;28;20372;-70
2022/10/14 06:47:12;;;;;;;;;;;14.10;93.20;;;;;;5038120;28;20372;-70
2022/10/14 06:49:38;;;;;;;;;;;14.10;93.20;;;;;;5040802;28;19991;-70
2022/10/14 06:52:05;;;;;;;;;;;14.10;93.30;;;;;;5037481;28;19986;-71
2022/10/14 06:54:33;;;;;;;;;;;14.10;93.30;;;;;;5041411;28;19976;-70
2022/10/14 06:56:59;;;;;;;;;;;14.10;93.30;;;;;;5042160;28;20063;-69
2022/10/14 06:59:27;;;;;;;;;;;14.10;93.30;;;;;;5048327;28;19995;-70
2022/10/14 07:01:54;;;;;;;;;;;14.10;93.30;;;;;;5042278;28;20003;-70
2022/10/14 07:04:21;;;;;;;;;;;14.10;93.30;;;;;;5046224;28;19976;-70
2022/10/14 07:06:47;;;;;;;;;;;14.10;93.30;;;;;;5044738;28;19984;-70
2022/10/14 07:09:14;;;;;;;;;;;14.10;93.30;;;;;;5045463;28;20086;-70
2022/10/14 07:11:42;;;;;;;;;;;14.10;93.30;;;;;;5035469;28;20364;-71
2022/10/14 07:14:09;;;;;;;;;;;14.10;93.30;;;;;;5046257;28;19996;-69
2022/10/14 07:16:35;;;;;;;;;;;14.10;93.30;;;;;;5043236;28;19992;-70
2022/10/14 07:19:02;;;;;;;;;;;14.10;93.30;;;;;;5045155;28;19995;-70
2022/10/14 07:21:29;;;;;;;;;;;14.10;93.20;;;;;;5044595;28;19983;-70
2022/10/14 07:23:56;;;;;;;;;;;14.10;93.20;;;;;;5046886;28;20390;-70
2022/10/14 07:26:22;;;;;;;;;;;14.10;93.20;;;;;;5039150;28;19980;-70
2022/10/14 07:28:50;;;;;;;;;;;14.10;93.20;;;;;;5043885;28;20016;-70
2022/10/14 07:31:17;;;;;;;;;;;14.10;93.20;;;;;;5043452;28;19995;-70
2022/10/14 07:33:44;;;;;;;;;;;14.10;93.20;;;;;;5036666;28;19995;-77
2022/10/14 07:36:12;;;;;;;;;;;14.10;93.20;;;;;;5036678;28;19984;-76
2022/10/14 07:38:39;;;;;;;;;;;14.10;93.20;;;;;;5037533;28;20274;-76
2022/10/14 07:41:08;;;;;;;;;;;14.20;93.30;;;;;;5042655;28;19980;-77
2022/10/14 07:43:35;;;;;;;;;;;14.20;93.30;;;;;;5035549;28;19975;-77
2022/10/14 07:46:04;;;;;;;;;;;14.20;93.30;;;;;;5041869;28;20134;-76
2022/10/14 07:48:32;;;;;;;;;;;14.20;93.30;;;;;;5038999;28;20675;-75
2022/10/14 07:50:58;;;;;;;;;;;14.20;93.30;;;;;;5042707;28;20498;-76
2022/10/14 07:53:25;;;;;;;;;;;14.20;93.30;;;;;;5043143;28;19996;-76
2022/10/14 07:55:52;;;;;;;;;;;14.20;93.30;;;;;;5040061;28;20010;-76
2022/10/14 07:58:20;;;;;;;;;;;14.20;93.30;;;;;;5043991;28;19979;-77
2022/10/14 08:00:47;;;;;;;;;;;14.20;93.20;;;;;;5036706;28;20002;-77
2022/10/14 08:03:15;;;;;;;;;;;14.20;93.20;;;;;;5037793;28;19983;-77
2022/10/14 08:05:41;;;;;;;;;;;14.30;93.20;;;;;;5043083;28;19987;-77
2022/10/14 08:08:08;;;;;;;;;;;14.30;93.50;;;;;;5043488;28;20063;-75
2022/10/14 08:10:36;;;;;;;;;;;14.30;93.10;;;;;;5040328;28;20360;-77
2022/10/14 08:13:03;;;;;;;;;;;14.30;93.10;;;;;;5040115;28;20958;-77
2022/10/14 08:15:32;;;;;;;;;;;14.30;93.10;;;;;;5038237;28;19999;-76
2022/10/14 08:17:59;;;;;;;;;;;14.30;93.10;;;;;;5038838;28;19983;-76
2022/10/14 08:20:27;;;;;;;;;;;14.30;93.10;;;;;;5042076;28;20554;-77
2022/10/14 08:22:54;;;;;;;;;;;14.30;93.10;;;;;;5040776;28;19983;-77
2022/10/14 08:25:21;;;;;;;;;;;14.30;93.10;;;;;;5043218;28;19986;-77
2022/10/14 08:27:49;;;;;;;;;;;14.40;93.10;;;;;;5040857;28;19983;-77
2022/10/14 08:30:15;;;;;;;;;;;14.40;93.10;;;;;;5039667;28;20519;-75
2022/10/14 08:32:42;;;;;;;;;;;14.40;93.10;;;;;;5039347;28;19991;-76
2022/10/14 08:35:09;;;;;;;;;;;14.40;93.10;;;;;;5039289;28;19976;-75
2022/10/14 08:37:37;;;;;;;;;;;14.40;93.00;;;;;;5039846;28;19983;-76
2022/10/14 08:40:04;;;;;;;;;;;14.40;93.00;;;;;;5040198;28;20510;-76
2022/10/14 08:42:35;;;;;;;;;;;14.40;93.00;;;;;;5040705;28;19980;-77
2022/10/14 08:45:07;;;;;;;;;;;14.40;93.00;;;;;;5041289;28;20030;-76
2022/10/14 08:47:36;;;;;;;;;;;14.50;93.00;;;;;;5037950;28;19991;-77
2022/10/14 08:50:04;;;;;;;;;;;14.50;93.00;;;;;;5040106;28;19996;-76
2022/10/14 08:52:34;;;;;;;;;;;14.50;93.00;;;;;;5041855;28;20619;-77
2022/10/14 08:55:03;;;;;;;;;;;14.50;93.00;;;;;;5037956;28;19984;-77
2022/10/14 08:57:33;;;;;;;;;;;14.50;92.90;;;;;;5040442;28;20489;-76
2022/10/14 08:59:59;;;;;;;;;;;14.40;92.90;;;;;;5042033;28;19992;-76
2022/10/14 09:02:33;;;;;;;;;;;14.50;92.90;;;;;;5036967;28;20002;-77
2022/10/14 09:05:01;;;;;;;;;;;14.50;92.90;;;;;;5043792;28;19989;-77
2022/10/14 09:07:28;;;;;;;;;;;14.50;92.90;;;;;;5040799;28;19980;-76
2022/10/14 09:09:58;;;;;;;;;;;14.60;92.90;;;;;;5042142;28;19991;-76
2022/10/14 09:12:29;;;;;;;;;;;14.60;92.90;;;;;;5039503;28;20459;-77
2022/10/14 09:15:01;;;;;;;;;;;14.60;92.90;;;;;;5044512;28;19998;-77
2022/10/14 09:17:30;;;;;;;;;;;14.60;92.90;;;;;;5041047;28;19998;-77
2022/10/14 09:20:04;;;;;;;;;;;14.60;92.90;;;;;;5039973;28;20346;-76
2022/10/14 09:22:30;;;;;;;;;;;14.70;92.90;;;;;;5041863;28;20387;-77
2022/10/14 09:24:57;;;;;;;;;;;14.70;92.80;;;;;;5043724;28;19976;-77
2022/10/14 09:27:24;;;;;;;;;;;14.70;92.80;;;;;;5038298;28;20683;-77
2022/10/14 09:29:53;;;;;;;;;;;14.70;92.80;;;;;;5040951;28;20031;-77
2022/10/14 09:32:25;;;;;;;;;;;14.70;92.80;;;;;;5036240;28;19999;-76
2022/10/14 09:34:52;;;;;;;;;;;14.70;92.80;;;;;;5042917;28;19995;-77
2022/10/14 09:37:24;;;;;;;;;;;14.70;92.80;;;;;;5040556;28;19980;-77
2022/10/14 09:39:51;;;;;;;;;;;14.80;92.80;;;;;;5034353;28;20003;-77
2022/10/14 09:42:19;;;;;;;;;;;14.80;92.80;;;;;;5040887;28;19979;-77
2022/10/14 09:45:02;;;;;;;;;;;14.70;92.80;;;;;;5040337;28;19984;-77
2022/10/14 09:47:29;;;;;;;;;;;14.80;92.80;;;;;;5038525;28;19998;-76
2022/10/14 09:49:58;;;;;;;;;;;14.80;92.80;;;;;;5043184;28;19992;-77
2022/10/14 09:52:25;;;;;;;;;;;14.80;92.70;;;;;;5038374;28;19976;-77
2022/10/14 09:54:53;;;;;;;;;;;14.90;92.80;;;;;;5038178;28;19999;-77
2022/10/14 09:57:20;;;;;;;;;;;14.90;92.80;;;;;;5036692;28;19979;-77
2022/10/14 09:59:49;;;;;;;;;;;14.90;92.70;;;;;;5042997;28;20002;-77
2022/10/14 10:02:20;;;;;;;;;;;14.90;92.70;;;;;;5039345;28;19999;-77
2022/10/14 10:04:47;;;;;;;;;;;14.90;92.70;;;;;;5039394;28;19983;-77
2022/10/14 10:07:25;;;;;;;;;;;14.90;92.70;;;;;;5040507;28;19976;-75
2022/10/14 10:09:54;;;;;;;;;;;14.90;92.70;;;;;;5042180;28;20014;-77
2022/10/14 10:12:24;;;;;;;;;;;15.00;92.80;;;;;;5042392;28;19982;-76
2022/10/14 10:14:56;;;;;;;;;;;15.00;92.80;;;;;;5045770;28;19992;-77
2022/10/14 10:17:26;;;;;;;;;;;15.00;92.80;;;;;;5039951;28;19992;-77
2022/10/14 10:20:05;;;;;;;;;;;15.00;92.80;;;;;;5043316;28;20027;-77
2022/10/14 10:22:35;;;;;;;;;;;15.10;92.80;;;;;;5036819;28;20422;-76
2022/10/14 10:25:18;;;;;;;;;;;15.10;92.80;;;;;;5042587;28;20003;-77
2022/10/14 10:27:46;;;;;;;;;;;15.10;92.80;;;;;;5041511;28;19976;-77
2022/10/14 10:30:15;;;;;;;;;;;15.10;92.80;;;;;;5039500;28;20204;-78
2022/10/14 10:32:46;;;;;;;;;;;15.10;92.70;;;;;;5038900;28;20015;-76
2022/10/14 10:35:19;;;;;;;;;;;15.10;92.70;;;;;;5039192;28;19992;-76
2022/10/14 10:37:53;;;;;;;;;;;15.10;92.70;;;;;;5041948;28;20098;-77
2022/10/14 10:40:37;;;;;;;;;;;15.20;92.70;;;;;;5038672;28;19992;-77
2022/10/14 10:43:17;;;;;;;;;;;15.20;92.70;;;;;;5044869;28;19975;-77
2022/10/14 10:45:53;;;;;;;;;;;15.20;92.70;;;;;;5038145;28;20022;-77
2022/10/14 10:48:23;;;;;;;;;;;15.30;92.70;;;;;;5042975;28;20005;-77
2022/10/14 10:50:56;;;;;;;;;;;15.20;92.70;;;;;;5043909;28;19992;-77
2022/10/14 10:53:54;;;;;;;;;;;15.30;92.70;;;;;;5041154;28;19991;-77
2022/10/14 10:56:25;;;;;;;;;;;15.30;92.80;;;;;;4994397;28;20119;-76
2022/10/14 10:59:00;;;;;;;;;;;15.30;92.80;;;;;;5037732;28;19975;-76
2022/10/14 11:01:35;;;;;;;;;;;15.30;92.90;;;;;;5040590;28;20018;-76
2022/10/14 11:04:08;;;;;;;;;;;15.30;92.90;;;;;;5042375;28;19990;-76
2022/10/14 11:12:16;;;;;;;;;;;15.40;92.80;;;;;;5044565;28;19982;-77
2022/10/14 11:14:49;;;;;;;;;;;15.40;92.80;;;;;;5042992;28;19996;-77
2022/10/14 11:17:20;;;;;;;;;;;15.40;92.80;;;;;;5041800;28;20022;-76
2022/10/14 11:19:50;;;;;;;;;;;15.40;92.80;;;;;;5042320;28;19999;-77
2022/10/14 11:22:27;;;;;;;;;;;15.40;92.80;;;;;;5038476;28;19980;-78
2022/10/14 11:24:59;;;;;;;;;;;15.40;92.90;;;;;;5038512;28;20095;-76
2022/10/14 11:27:31;;;;;;;;;;;15.40;92.90;;;;;;5039283;28;19983;-77
2022/10/14 11:30:12;;;;;;;;;;;15.40;92.90;;;;;;5042098;28;20002;-77
2022/10/14 11:32:47;;;;;;;;;;;15.40;92.90;;;;;;5037291;28;19991;-76
2022/10/14 11:35:19;;;;;;;;;;;15.50;92.90;;;;;;5041311;28;20021;-77
2022/10/14 11:37:51;;;;;;;;;;;15.50;92.90;;;;;;5044025;28;19983;-77
2022/10/14 11:40:21;;;;;;;;;;;15.50;92.90;;;;;;5043607;28;20007;-77
2022/10/14 11:42:53;;;;;;;;;;;15.50;93.00;;;;;;5045132;28;19999;-77
2022/10/14 11:45:30;;;;;;;;;;;15.50;93.00;;;;;;5044841;28;19984;-77
2022/10/14 11:48:01;;;;;;;;;;;15.50;93.00;;;;;;5041632;28;20034;-76
2022/10/14 11:50:34;;;;;;;;;;;15.50;92.90;;;;;;5044360;28;19995;-77
2022/10/14 11:53:02;;;;;;;;;;;15.60;93.00;;;;;;5042353;28;19988;-76
2022/10/14 11:55:30;;;;;;;;;;;15.60;93.00;;;;;;5039954;28;19996;-76
2022/10/14 11:57:58;;;;;;;;;;;15.60;93.00;;;;;;5041442;28;20713;-75
2022/10/14 12:00:44;;;;;;;;;;;15.60;93.00;;;;;;5043365;28;19999;-77
2022/10/14 12:03:14;;;;;;;;;;;15.60;93.00;;;;;;5041542;28;20467;-76
2022/10/14 12:05:45;;;;;;;;;;;15.60;93.10;;;;;;5044545;28;19987;-76
2022/10/14 12:08:18;;;;;;;;;;;15.70;93.10;;;;;;5041680;28;19976;-77
2022/10/14 12:10:46;;;;;;;;;;;15.70;93.10;;;;;;5043566;28;20022;-77
2022/10/14 12:13:14;;;;;;;;;;;15.70;93.00;;;;;;5042338;28;19982;-78
2022/10/14 12:15:43;;;;;;;;;;;15.70;93.10;;;;;;5042210;28;20385;-77
2022/10/14 12:18:10;;;;;;;;;;;15.80;93.10;;;;;;5040933;28;19971;-76
2022/10/14 12:20:40;;;;;;;;;;;15.80;93.10;;;;;;5044347;28;19995;-76
2022/10/14 12:23:11;;;;;;;;;;;15.80;93.10;;;;;;5043071;28;19980;-77
2022/10/14 12:25:41;;;;;;;;;;;15.80;93.10;;;;;;5041918;28;19983;-76
2022/10/14 12:28:09;;;;;;;;;;;15.90;93.10;;;;;;5040354;28;19980;-76
2022/10/14 12:30:37;;;;;;;;;;;15.80;93.10;;;;;;5039873;28;20002;-77
2022/10/14 12:33:04;;;;;;;;;;;15.90;93.10;;;;;;5040312;28;19983;-77
2022/10/14 12:35:51;;;;;;;;;;;15.90;93.10;;;;;;5040657;28;19992;-76
2022/10/14 12:38:20;;;;;;;;;;;15.90;93.10;;;;;;5035429;28;20081;-76
2022/10/14 12:40:48;;;;;;;;;;;16.00;93.10;;;;;;5041776;28;19999;-77
2022/10/14 12:43:20;;;;;;;;;;;16.00;93.10;;;;;;5039080;28;20026;-77
2022/10/14 12:45:49;;;;;;;;;;;16.00;93.00;;;;;;5042260;28;20011;-77
2022/10/14 12:48:18;;;;;;;;;;;16.00;93.00;;;;;;5039755;28;19972;-77
2022/10/14 12:50:45;;;;;;;;;;;16.00;93.00;;;;;;5042762;28;20084;-77
2022/10/14 12:53:17;;;;;;;;;;;16.00;93.00;;;;;;5038138;28;20059;-77
2022/10/14 12:55:49;;;;;;;;;;;16.10;93.10;;;;;;5041164;28;19988;-77
2022/10/14 12:58:24;;;;;;;;;;;16.10;93.00;;;;;;5036048;28;19980;-77
2022/10/14 13:00:55;;;;;;;;;;;16.00;93.00;;;;;;5038646;28;19995;-77
2022/10/14 13:03:25;;;;;;;;;;;16.10;93.00;;;;;;5037236;28;19975;-77
2022/10/14 13:05:51;;;;;;;;;;;16.10;93.00;;;;;;5039067;28;19995;-76
2022/10/14 13:08:26;;;;;;;;;;;16.10;93.00;;;;;;5041713;28;20030;-77
2022/10/14 13:11:08;;;;;;;;;;;16.10;93.00;;;;;;5040456;28;20538;-77
2022/10/14 13:13:51;;;;;;;;;;;16.10;93.00;;;;;;5039584;28;20521;-77
2022/10/14 13:16:36;;;;;;;;;;;16.10;93.30;;;;;;5041921;28;20039;-76
2022/10/14 13:19:03;;;;;;;;;;;16.10;93.00;;;;;;5040244;28;20010;-77
2022/10/14 13:21:50;;;;;;;;;;;16.20;93.00;;;;;;5040202;28;20009;-76
2022/10/14 13:24:20;;;;;;;;;;;16.20;93.00;;;;;;5039576;28;19976;-77
2022/10/14 13:26:51;;;;;;;;;;;16.20;93.00;;;;;;5042494;28;19976;-77
2022/10/14 13:29:24;;;;;;;;;;;16.20;93.00;;;;;;5040488;28;19992;-78
2022/10/14 13:31:54;;;;;;;;;;;16.20;93.00;;;;;;5037020;28;20007;-77
2022/10/14 13:34:24;;;;;;;;;;;16.20;93.00;;;;;;5041027;28;20323;-77
2022/10/14 13:36:58;;;;;;;;;;;16.30;93.00;;;;;;5042644;28;19980;-77
2022/10/14 13:39:25;;;;;;;;;;;16.30;93.00;;;;;;5039896;28;20681;-77
2022/10/14 13:41:51;;;;;;;;;;;16.30;93.00;;;;;;5041567;28;19975;-77
2022/10/14 13:44:20;;;;;;;;;;;16.30;93.00;;;;;;5041116;28;19991;-77
2022/10/14 13:46:48;;;;;;;;;;;16.30;93.00;;;;;;5039223;28;19999;-76
2022/10/14 13:49:16;;;;;;;;;;;16.30;93.10;;;;;;5046744;28;20497;-77
2022/10/14 13:51:44;;;;;;;;;;;16.30;93.10;;;;;;5042969;28;21668;-76
2022/10/14 13:54:18;;;;;;;;;;;16.30;93.10;;;;;;5041200;28;20075;-77
2022/10/14 13:56:56;;;;;;;;;;;16.30;93.10;;;;;;5036467;28;19976;-78
2022/10/14 13:59:23;;;;;;;;;;;16.30;93.10;;;;;;5041731;28;20734;-77
2022/10/14 14:01:53;;;;;;;;;;;16.30;93.10;;;;;;5037293;28;19996;-77
2022/10/14 14:04:22;;;;;;;;;;;16.30;93.10;;;;;;5039437;28;20507;-77
2022/10/14 14:06:50;;;;;;;;;;;16.30;93.10;;;;;;5037786;28;19980;-77
2022/10/14 14:09:19;;;;;;;;;;;16.30;93.10;;;;;;5037006;28;20069;-77
2022/10/14 14:11:46;;;;;;;;;;;16.30;93.20;;;;;;5030970;28;20515;-77
2022/10/14 14:14:17;;;;;;;;;;;16.30;93.40;;;;;;5040552;28;19988;-76
2022/10/14 14:16:47;;;;;;;;;;;16.30;93.40;;;;;;5045462;28;20007;-76
2022/10/14 14:19:19;;;;;;;;;;;16.30;93.50;;;;;;5044862;28;19992;-75
2022/10/14 14:21:46;;;;;;;;;;;16.30;93.70;;;;;;5044712;28;19976;-76
2022/10/14 14:24:18;;;;;;;;;;;16.30;93.80;;;;;;5045215;28;19977;-77
2022/10/14 14:26:44;;;;;;;;;;;16.30;93.90;;;;;;5040014;28;19983;-76
2022/10/14 14:29:14;;;;;;;;;;;16.30;94.00;;;;;;5041746;28;19996;-77
2022/10/14 14:31:42;;;;;;;;;;;16.30;94.00;;;;;;5041233;28;19995;-77